sensor_id;sensor_type;location;lat;lon;timestamp;P1;durP1;ratioP1;P2;durP2;ratioP2
52962;SDS011;38827;53.024;6.596;2023-04-24T00:01:31;2.40;;;1.00;;
52962;SDS011;38827;53.024;6.596;2023-04-24T00:06:25;0.80;;;0.70;;
52962;SDS011;38827;53.024;6.596;2023-04-24T00:08:58;1.05;;;0.82;;
52962;SDS011;38827;53.024;6.596;2023-04-24T00:11:25;1.65;;;0.70;;
52962;SDS011;38827;53.024;6.596;2023-04-24T00:13:51;0.80;;;0.68;;
52962;SDS011;38827;53.024;6.596;2023-04-24T00:16:17;0.60;;;0.60;;
52962;SDS011;38827;53.024;6.596;2023-04-24T00:18:42;1.48;;;0.65;;
52962;SDS011;38827;53.024;6.596;2023-04-24T00:23:35;0.63;;;0.63;;
52962;SDS011;38827;53.024;6.596;2023-04-24T00:26:01;1.77;;;0.65;;
52962;SDS011;38827;53.024;6.596;2023-04-24T00:28:27;2.10;;;0.75;;
52962;SDS011;38827;53.024;6.596;2023-04-24T00:30:53;1.75;;;0.70;;
52962;SDS011;38827;53.024;6.596;2023-04-24T00:33:19;0.70;;;0.70;;
52962;SDS011;38827;53.024;6.596;2023-04-24T00:35:45;1.63;;;0.77;;
52962;SDS011;38827;53.024;6.596;2023-04-24T00:38:11;1.73;;;0.77;;
52962;SDS011;38827;53.024;6.596;2023-04-24T00:40:37;3.67;;;0.90;;
52962;SDS011;38827;53.024;6.596;2023-04-24T00:43:04;0.70;;;0.70;;
52962;SDS011;38827;53.024;6.596;2023-04-24T00:45:30;0.90;;;0.90;;
52962;SDS011;38827;53.024;6.596;2023-04-24T00:47:56;0.93;;;0.80;;
52962;SDS011;38827;53.024;6.596;2023-04-24T00:50:23;0.95;;;0.90;;
52962;SDS011;38827;53.024;6.596;2023-04-24T00:52:49;1.52;;;0.93;;
52962;SDS011;38827;53.024;6.596;2023-04-24T00:55:15;1.00;;;1.00;;
52962;SDS011;38827;53.024;6.596;2023-04-24T00:57:42;0.98;;;0.98;;
52962;SDS011;38827;53.024;6.596;2023-04-24T01:00:09;1.00;;;1.00;;
52962;SDS011;38827;53.024;6.596;2023-04-24T01:02:41;1.08;;;1.08;;
52962;SDS011;38827;53.024;6.596;2023-04-24T01:05:12;1.15;;;1.10;;
52962;SDS011;38827;53.024;6.596;2023-04-24T01:07:39;2.28;;;1.23;;
52962;SDS011;38827;53.024;6.596;2023-04-24T01:10:10;1.60;;;1.50;;
52962;SDS011;38827;53.024;6.596;2023-04-24T01:12:36;1.40;;;1.30;;
52962;SDS011;38827;53.024;6.596;2023-04-24T01:15:02;1.65;;;1.45;;
52962;SDS011;38827;53.024;6.596;2023-04-24T01:17:29;1.77;;;1.67;;
52962;SDS011;38827;53.024;6.596;2023-04-24T01:19:55;2.05;;;1.90;;
52962;SDS011;38827;53.024;6.596;2023-04-24T01:22:25;1.90;;;1.80;;
52962;SDS011;38827;53.024;6.596;2023-04-24T01:24:51;1.80;;;1.70;;
52962;SDS011;38827;53.024;6.596;2023-04-24T01:27:17;1.92;;;1.83;;
52962;SDS011;38827;53.024;6.596;2023-04-24T01:29:43;1.93;;;1.83;;
52962;SDS011;38827;53.024;6.596;2023-04-24T01:32:09;2.13;;;1.92;;
52962;SDS011;38827;53.024;6.596;2023-04-24T01:34:35;2.03;;;1.93;;
52962;SDS011;38827;53.024;6.596;2023-04-24T01:37:02;2.58;;;2.38;;
52962;SDS011;38827;53.024;6.596;2023-04-24T01:39:28;2.70;;;2.50;;
52962;SDS011;38827;53.024;6.596;2023-04-24T01:41:54;3.13;;;2.60;;
52962;SDS011;38827;53.024;6.596;2023-04-24T01:44:21;2.97;;;2.78;;
52962;SDS011;38827;53.024;6.596;2023-04-24T01:46:49;3.38;;;3.08;;
52962;SDS011;38827;53.024;6.596;2023-04-24T01:49:15;3.10;;;2.90;;
52962;SDS011;38827;53.024;6.596;2023-04-24T01:51:45;3.58;;;3.28;;
52962;SDS011;38827;53.024;6.596;2023-04-24T01:54:14;3.53;;;3.30;;
52962;SDS011;38827;53.024;6.596;2023-04-24T01:56:41;3.85;;;3.55;;
52962;SDS011;38827;53.024;6.596;2023-04-24T01:59:11;3.97;;;3.58;;
52962;SDS011;38827;53.024;6.596;2023-04-24T02:01:38;4.63;;;4.22;;
52962;SDS011;38827;53.024;6.596;2023-04-24T02:04:04;6.55;;;4.47;;
52962;SDS011;38827;53.024;6.596;2023-04-24T02:06:32;5.13;;;4.63;;
52962;SDS011;38827;53.024;6.596;2023-04-24T02:08:58;5.00;;;4.55;;
52962;SDS011;38827;53.024;6.596;2023-04-24T02:11:25;5.20;;;4.75;;
52962;SDS011;38827;53.024;6.596;2023-04-24T02:13:51;4.87;;;4.50;;
52962;SDS011;38827;53.024;6.596;2023-04-24T02:16:17;6.70;;;5.33;;
52962;SDS011;38827;53.024;6.596;2023-04-24T02:18:43;6.18;;;5.68;;
52962;SDS011;38827;53.024;6.596;2023-04-24T02:21:09;6.10;;;5.60;;
52962;SDS011;38827;53.024;6.596;2023-04-24T02:26:01;6.33;;;5.73;;
52962;SDS011;38827;53.024;6.596;2023-04-24T02:28:27;6.45;;;5.95;;
52962;SDS011;38827;53.024;6.596;2023-04-24T02:30:53;6.63;;;6.13;;
52962;SDS011;38827;53.024;6.596;2023-04-24T02:33:20;6.32;;;5.68;;
52962;SDS011;38827;53.024;6.596;2023-04-24T02:35:45;6.40;;;5.88;;
52962;SDS011;38827;53.024;6.596;2023-04-24T02:38:11;6.20;;;5.70;;
52962;SDS011;38827;53.024;6.596;2023-04-24T02:40:39;6.90;;;6.30;;
52962;SDS011;38827;53.024;6.596;2023-04-24T02:43:13;6.55;;;6.05;;
52962;SDS011;38827;53.024;6.596;2023-04-24T02:45:41;7.40;;;6.72;;
52962;SDS011;38827;53.024;6.596;2023-04-24T02:48:06;7.60;;;6.93;;
52962;SDS011;38827;53.024;6.596;2023-04-24T02:50:33;7.05;;;6.50;;
52962;SDS011;38827;53.024;6.596;2023-04-24T02:52:59;7.07;;;6.47;;
52962;SDS011;38827;53.024;6.596;2023-04-24T02:55:24;6.60;;;6.10;;
52962;SDS011;38827;53.024;6.596;2023-04-24T02:57:50;6.38;;;5.88;;
52962;SDS011;38827;53.024;6.596;2023-04-24T03:00:16;6.35;;;5.78;;
52962;SDS011;38827;53.024;6.596;2023-04-24T03:02:42;6.85;;;6.25;;
52962;SDS011;38827;53.024;6.596;2023-04-24T03:05:07;6.13;;;5.72;;
52962;SDS011;38827;53.024;6.596;2023-04-24T03:07:34;6.53;;;5.93;;
52962;SDS011;38827;53.024;6.596;2023-04-24T03:10:00;6.43;;;5.93;;
52962;SDS011;38827;53.024;6.596;2023-04-24T03:12:25;6.20;;;5.70;;
52962;SDS011;38827;53.024;6.596;2023-04-24T03:17:48;5.82;;;5.40;;
52962;SDS011;38827;53.024;6.596;2023-04-24T03:20:13;6.20;;;5.70;;
52962;SDS011;38827;53.024;6.596;2023-04-24T03:22:39;6.57;;;5.35;;
52962;SDS011;38827;53.024;6.596;2023-04-24T03:25:05;5.35;;;4.85;;
52962;SDS011;38827;53.024;6.596;2023-04-24T03:27:31;5.33;;;4.93;;
52962;SDS011;38827;53.024;6.596;2023-04-24T03:29:57;6.35;;;5.20;;
52962;SDS011;38827;53.024;6.596;2023-04-24T03:32:22;5.20;;;4.75;;
52962;SDS011;38827;53.024;6.596;2023-04-24T03:34:48;4.68;;;4.28;;
52962;SDS011;38827;53.024;6.596;2023-04-24T03:37:15;5.07;;;4.55;;
52962;SDS011;38827;53.024;6.596;2023-04-24T03:39:41;6.50;;;4.60;;
52962;SDS011;38827;53.024;6.596;2023-04-24T03:44:34;4.30;;;3.97;;
52962;SDS011;38827;53.024;6.596;2023-04-24T03:47:01;3.63;;;3.33;;
52962;SDS011;38827;53.024;6.596;2023-04-24T03:49:26;3.80;;;3.50;;
52962;SDS011;38827;53.024;6.596;2023-04-24T03:51:52;3.78;;;3.47;;
52962;SDS011;38827;53.024;6.596;2023-04-24T03:54:18;3.72;;;3.40;;
52962;SDS011;38827;53.024;6.596;2023-04-24T03:56:44;3.77;;;3.47;;
52962;SDS011;38827;53.024;6.596;2023-04-24T03:59:10;3.50;;;3.20;;
52962;SDS011;38827;53.024;6.596;2023-04-24T04:01:36;3.70;;;3.40;;
52962;SDS011;38827;53.024;6.596;2023-04-24T04:04:05;3.60;;;3.30;;
52962;SDS011;38827;53.024;6.596;2023-04-24T04:06:33;4.75;;;3.78;;
52962;SDS011;38827;53.024;6.596;2023-04-24T04:08:59;4.68;;;4.28;;
52962;SDS011;38827;53.024;6.596;2023-04-24T04:11:46;4.53;;;4.13;;
52962;SDS011;38827;53.024;6.596;2023-04-24T04:14:12;5.25;;;4.40;;
52962;SDS011;38827;53.024;6.596;2023-04-24T04:16:37;5.50;;;4.43;;
52962;SDS011;38827;53.024;6.596;2023-04-24T04:19:03;5.20;;;4.80;;
52962;SDS011;38827;53.024;6.596;2023-04-24T04:21:30;4.85;;;4.45;;
52962;SDS011;38827;53.024;6.596;2023-04-24T04:23:57;5.82;;;5.32;;
52962;SDS011;38827;53.024;6.596;2023-04-24T04:26:22;5.25;;;4.65;;
52962;SDS011;38827;53.024;6.596;2023-04-24T04:28:50;5.30;;;4.80;;
52962;SDS011;38827;53.024;6.596;2023-04-24T04:31:16;6.07;;;5.23;;
52962;SDS011;38827;53.024;6.596;2023-04-24T04:33:42;5.25;;;4.85;;
52962;SDS011;38827;53.024;6.596;2023-04-24T04:36:10;4.45;;;4.05;;
52962;SDS011;38827;53.024;6.596;2023-04-24T04:38:40;4.30;;;3.90;;
52962;SDS011;38827;53.024;6.596;2023-04-24T04:41:05;4.60;;;3.58;;
52962;SDS011;38827;53.024;6.596;2023-04-24T04:43:32;4.22;;;3.83;;
52962;SDS011;38827;53.024;6.596;2023-04-24T04:46:04;3.70;;;3.28;;
52962;SDS011;38827;53.024;6.596;2023-04-24T04:48:30;4.47;;;3.00;;
52962;SDS011;38827;53.024;6.596;2023-04-24T04:50:56;4.47;;;2.80;;
52962;SDS011;38827;53.024;6.596;2023-04-24T04:53:28;2.30;;;2.10;;
52962;SDS011;38827;53.024;6.596;2023-04-24T04:55:54;1.85;;;1.50;;
52962;SDS011;38827;53.024;6.596;2023-04-24T04:58:21;1.30;;;1.20;;
52962;SDS011;38827;53.024;6.596;2023-04-24T05:00:46;1.83;;;1.35;;
52962;SDS011;38827;53.024;6.596;2023-04-24T05:03:13;0.90;;;0.88;;
52962;SDS011;38827;53.024;6.596;2023-04-24T05:05:41;1.20;;;1.00;;
52962;SDS011;38827;53.024;6.596;2023-04-24T05:08:13;0.90;;;0.90;;
52962;SDS011;38827;53.024;6.596;2023-04-24T05:10:39;1.42;;;0.95;;
52962;SDS011;38827;53.024;6.596;2023-04-24T05:13:05;1.10;;;1.00;;
52962;SDS011;38827;53.024;6.596;2023-04-24T05:15:31;1.30;;;1.10;;
52962;SDS011;38827;53.024;6.596;2023-04-24T05:17:56;1.50;;;1.10;;
52962;SDS011;38827;53.024;6.596;2023-04-24T05:20:22;1.73;;;1.10;;
52962;SDS011;38827;53.024;6.596;2023-04-24T05:22:48;1.73;;;1.40;;
52962;SDS011;38827;53.024;6.596;2023-04-24T05:25:14;1.30;;;1.20;;
52962;SDS011;38827;53.024;6.596;2023-04-24T05:27:42;1.40;;;1.30;;
52962;SDS011;38827;53.024;6.596;2023-04-24T05:30:08;1.85;;;1.75;;
52962;SDS011;38827;53.024;6.596;2023-04-24T05:32:34;1.67;;;1.57;;
52962;SDS011;38827;53.024;6.596;2023-04-24T05:35:00;1.70;;;1.60;;
52962;SDS011;38827;53.024;6.596;2023-04-24T05:37:41;1.85;;;1.73;;
52962;SDS011;38827;53.024;6.596;2023-04-24T05:40:07;2.15;;;2.03;;
52962;SDS011;38827;53.024;6.596;2023-04-24T05:42:33;2.00;;;1.90;;
52962;SDS011;38827;53.024;6.596;2023-04-24T05:44:59;2.10;;;1.90;;
52962;SDS011;38827;53.024;6.596;2023-04-24T05:47:25;2.38;;;2.17;;
52962;SDS011;38827;53.024;6.596;2023-04-24T05:49:51;2.33;;;2.10;;
52962;SDS011;38827;53.024;6.596;2023-04-24T05:52:17;2.03;;;1.88;;
52962;SDS011;38827;53.024;6.596;2023-04-24T05:54:44;3.35;;;2.10;;
52962;SDS011;38827;53.024;6.596;2023-04-24T05:57:12;2.30;;;2.03;;
52962;SDS011;38827;53.024;6.596;2023-04-24T06:02:05;2.00;;;1.73;;
52962;SDS011;38827;53.024;6.596;2023-04-24T06:04:31;2.03;;;1.80;;
52962;SDS011;38827;53.024;6.596;2023-04-24T06:06:57;3.13;;;2.42;;
52962;SDS011;38827;53.024;6.596;2023-04-24T06:09:23;2.45;;;2.25;;
52962;SDS011;38827;53.024;6.596;2023-04-24T06:11:49;2.20;;;2.00;;
52962;SDS011;38827;53.024;6.596;2023-04-24T06:14:18;2.53;;;2.00;;
52962;SDS011;38827;53.024;6.596;2023-04-24T06:16:45;2.10;;;1.90;;
52962;SDS011;38827;53.024;6.596;2023-04-24T06:19:13;2.15;;;1.75;;
52962;SDS011;38827;53.024;6.596;2023-04-24T06:21:39;1.80;;;1.70;;
52962;SDS011;38827;53.024;6.596;2023-04-24T06:24:05;2.55;;;1.60;;
52962;SDS011;38827;53.024;6.596;2023-04-24T06:26:38;2.13;;;1.20;;
52962;SDS011;38827;53.024;6.596;2023-04-24T06:29:04;2.22;;;1.20;;
52962;SDS011;38827;53.024;6.596;2023-04-24T06:31:32;2.00;;;1.58;;
52962;SDS011;38827;53.024;6.596;2023-04-24T06:34:04;1.80;;;1.70;;
52962;SDS011;38827;53.024;6.596;2023-04-24T06:36:40;2.70;;;2.17;;
52962;SDS011;38827;53.024;6.596;2023-04-24T06:39:06;2.72;;;2.40;;
52962;SDS011;38827;53.024;6.596;2023-04-24T06:41:31;2.83;;;2.53;;
52962;SDS011;38827;53.024;6.596;2023-04-24T06:43:57;8.32;;;3.72;;
52962;SDS011;38827;53.024;6.596;2023-04-24T06:46:23;4.47;;;3.08;;
52962;SDS011;38827;53.024;6.596;2023-04-24T06:48:51;5.78;;;3.58;;
52962;SDS011;38827;53.024;6.596;2023-04-24T06:51:17;5.57;;;3.60;;
52962;SDS011;38827;53.024;6.596;2023-04-24T06:53:43;4.97;;;3.60;;
52962;SDS011;38827;53.024;6.596;2023-04-24T06:56:09;5.28;;;3.80;;
52962;SDS011;38827;53.024;6.596;2023-04-24T06:58:35;7.22;;;3.90;;
52962;SDS011;38827;53.024;6.596;2023-04-24T07:01:01;4.20;;;3.80;;
52962;SDS011;38827;53.024;6.596;2023-04-24T07:03:26;5.95;;;3.92;;
52962;SDS011;38827;53.024;6.596;2023-04-24T07:11:24;6.38;;;4.30;;
52962;SDS011;38827;53.024;6.596;2023-04-24T07:13:57;5.45;;;3.97;;
52962;SDS011;38827;53.024;6.596;2023-04-24T07:16:28;4.63;;;3.35;;
52962;SDS011;38827;53.024;6.596;2023-04-24T07:18:53;4.13;;;3.25;;
52962;SDS011;38827;53.024;6.596;2023-04-24T07:21:19;5.00;;;3.38;;
52962;SDS011;38827;53.024;6.596;2023-04-24T07:23:56;6.13;;;3.58;;
52962;SDS011;38827;53.024;6.596;2023-04-24T07:26:22;4.20;;;3.30;;
52962;SDS011;38827;53.024;6.596;2023-04-24T07:28:48;3.35;;;2.83;;
52962;SDS011;38827;53.024;6.596;2023-04-24T07:31:17;2.88;;;2.55;;
52962;SDS011;38827;53.024;6.596;2023-04-24T07:33:47;3.15;;;2.00;;
52962;SDS011;38827;53.024;6.596;2023-04-24T07:36:17;4.70;;;1.97;;
52962;SDS011;38827;53.024;6.596;2023-04-24T07:41:51;3.80;;;1.85;;
52962;SDS011;38827;53.024;6.596;2023-04-24T07:44:19;3.80;;;1.80;;
52962;SDS011;38827;53.024;6.596;2023-04-24T07:46:47;4.25;;;2.13;;
52962;SDS011;38827;53.024;6.596;2023-04-24T07:49:16;4.63;;;2.10;;
52962;SDS011;38827;53.024;6.596;2023-04-24T07:51:42;4.75;;;2.10;;
52962;SDS011;38827;53.024;6.596;2023-04-24T07:56:40;5.35;;;2.00;;
52962;SDS011;38827;53.024;6.596;2023-04-24T07:59:08;7.32;;;2.22;;
52962;SDS011;38827;53.024;6.596;2023-04-24T08:04:02;3.07;;;2.03;;
52962;SDS011;38827;53.024;6.596;2023-04-24T08:06:27;9.43;;;2.30;;
52962;SDS011;38827;53.024;6.596;2023-04-24T08:08:55;8.60;;;2.40;;
52962;SDS011;38827;53.024;6.596;2023-04-24T08:11:21;5.38;;;2.10;;
52962;SDS011;38827;53.024;6.596;2023-04-24T08:13:50;5.18;;;2.33;;
52962;SDS011;38827;53.024;6.596;2023-04-24T08:16:16;9.32;;;3.75;;
52962;SDS011;38827;53.024;6.596;2023-04-24T08:18:45;8.93;;;4.82;;
52962;SDS011;38827;53.024;6.596;2023-04-24T08:21:15;12.52;;;6.75;;
52962;SDS011;38827;53.024;6.596;2023-04-24T08:23:49;13.23;;;7.80;;
52962;SDS011;38827;53.024;6.596;2023-04-24T08:26:21;16.13;;;8.65;;
52962;SDS011;38827;53.024;6.596;2023-04-24T08:28:50;17.48;;;9.60;;
52962;SDS011;38827;53.024;6.596;2023-04-24T08:31:15;16.83;;;9.32;;
52962;SDS011;38827;53.024;6.596;2023-04-24T08:33:44;20.30;;;10.23;;
52962;SDS011;38827;53.024;6.596;2023-04-24T08:36:10;21.05;;;10.90;;
52962;SDS011;38827;53.024;6.596;2023-04-24T08:38:36;23.38;;;12.25;;
52962;SDS011;38827;53.024;6.596;2023-04-24T08:41:02;24.85;;;13.20;;
52962;SDS011;38827;53.024;6.596;2023-04-24T08:43:29;25.73;;;12.82;;
52962;SDS011;38827;53.024;6.596;2023-04-24T08:45:57;19.75;;;11.98;;
52962;SDS011;38827;53.024;6.596;2023-04-24T08:48:24;17.52;;;10.70;;
52962;SDS011;38827;53.024;6.596;2023-04-24T08:50:51;20.27;;;11.40;;
52962;SDS011;38827;53.024;6.596;2023-04-24T08:53:17;19.65;;;11.00;;
52962;SDS011;38827;53.024;6.596;2023-04-24T08:55:43;20.88;;;12.20;;
52962;SDS011;38827;53.024;6.596;2023-04-24T08:58:14;22.40;;;12.45;;
52962;SDS011;38827;53.024;6.596;2023-04-24T09:00:43;27.98;;;13.25;;
52962;SDS011;38827;53.024;6.596;2023-04-24T09:03:13;22.65;;;12.27;;
52962;SDS011;38827;53.024;6.596;2023-04-24T09:05:40;18.00;;;12.25;;
52962;SDS011;38827;53.024;6.596;2023-04-24T09:08:10;21.85;;;12.15;;
52962;SDS011;38827;53.024;6.596;2023-04-24T09:10:38;25.05;;;13.07;;
52962;SDS011;38827;53.024;6.596;2023-04-24T09:13:05;25.73;;;12.83;;
52962;SDS011;38827;53.024;6.596;2023-04-24T09:15:31;26.10;;;14.43;;
52962;SDS011;38827;53.024;6.596;2023-04-24T09:17:57;22.80;;;14.10;;
52962;SDS011;38827;53.024;6.596;2023-04-24T09:20:24;22.30;;;13.88;;
52962;SDS011;38827;53.024;6.596;2023-04-24T09:22:53;22.50;;;13.32;;
52962;SDS011;38827;53.024;6.596;2023-04-24T09:25:20;21.02;;;12.75;;
52962;SDS011;38827;53.024;6.596;2023-04-24T09:27:46;18.65;;;11.60;;
52962;SDS011;38827;53.024;6.596;2023-04-24T09:30:12;20.23;;;12.93;;
52962;SDS011;38827;53.024;6.596;2023-04-24T09:32:39;19.27;;;12.20;;
52962;SDS011;38827;53.024;6.596;2023-04-24T09:37:36;18.73;;;11.82;;
52962;SDS011;38827;53.024;6.596;2023-04-24T09:40:18;20.40;;;10.95;;
52962;SDS011;38827;53.024;6.596;2023-04-24T09:42:53;16.73;;;9.63;;
52962;SDS011;38827;53.024;6.596;2023-04-24T09:45:27;15.10;;;9.65;;
52962;SDS011;38827;53.024;6.596;2023-04-24T09:47:54;20.90;;;10.30;;
52962;SDS011;38827;53.024;6.596;2023-04-24T09:50:23;15.00;;;9.82;;
52962;SDS011;38827;53.024;6.596;2023-04-24T09:52:56;16.55;;;9.40;;
52962;SDS011;38827;53.024;6.596;2023-04-24T09:55:23;15.90;;;9.43;;
52962;SDS011;38827;53.024;6.596;2023-04-24T09:57:56;15.70;;;9.05;;
52962;SDS011;38827;53.024;6.596;2023-04-24T10:00:26;11.45;;;8.65;;
52962;SDS011;38827;53.024;6.596;2023-04-24T10:02:56;14.10;;;7.97;;
52962;SDS011;38827;53.024;6.596;2023-04-24T10:05:27;15.70;;;8.95;;
52962;SDS011;38827;53.024;6.596;2023-04-24T10:08:03;11.93;;;7.53;;
52962;SDS011;38827;53.024;6.596;2023-04-24T10:10:33;14.40;;;7.10;;
52962;SDS011;38827;53.024;6.596;2023-04-24T10:13:00;13.88;;;6.35;;
52962;SDS011;38827;53.024;6.596;2023-04-24T10:15:26;11.27;;;5.45;;
52962;SDS011;38827;53.024;6.596;2023-04-24T10:17:52;15.73;;;6.03;;
52962;SDS011;38827;53.024;6.596;2023-04-24T10:20:20;12.75;;;6.40;;
52962;SDS011;38827;53.024;6.596;2023-04-24T10:22:48;12.88;;;5.57;;
52962;SDS011;38827;53.024;6.596;2023-04-24T10:25:21;15.25;;;6.15;;
52962;SDS011;38827;53.024;6.596;2023-04-24T10:27:48;11.68;;;5.15;;
52962;SDS011;38827;53.024;6.596;2023-04-24T10:30:15;11.95;;;5.50;;
52962;SDS011;38827;53.024;6.596;2023-04-24T10:32:41;9.07;;;4.45;;
52962;SDS011;38827;53.024;6.596;2023-04-24T10:35:14;10.38;;;4.15;;
52962;SDS011;38827;53.024;6.596;2023-04-24T10:37:45;8.13;;;3.60;;
52962;SDS011;38827;53.024;6.596;2023-04-24T10:40:16;10.32;;;3.58;;
52962;SDS011;38827;53.024;6.596;2023-04-24T10:42:52;11.15;;;3.30;;
52962;SDS011;38827;53.024;6.596;2023-04-24T10:45:19;7.03;;;3.30;;
52962;SDS011;38827;53.024;6.596;2023-04-24T10:47:53;12.73;;;3.83;;
52962;SDS011;38827;53.024;6.596;2023-04-24T10:50:27;10.02;;;3.45;;
52962;SDS011;38827;53.024;6.596;2023-04-24T10:52:55;9.60;;;3.65;;
52962;SDS011;38827;53.024;6.596;2023-04-24T10:55:56;10.50;;;3.17;;
52962;SDS011;38827;53.024;6.596;2023-04-24T10:58:22;8.10;;;3.13;;
52962;SDS011;38827;53.024;6.596;2023-04-24T11:00:56;9.50;;;2.92;;
52962;SDS011;38827;53.024;6.596;2023-04-24T11:03:27;8.18;;;2.47;;
52962;SDS011;38827;53.024;6.596;2023-04-24T11:05:58;5.43;;;2.10;;
52962;SDS011;38827;53.024;6.596;2023-04-24T11:08:43;6.38;;;2.53;;
52962;SDS011;38827;53.024;6.596;2023-04-24T11:14:24;9.85;;;2.50;;
52962;SDS011;38827;53.024;6.596;2023-04-24T11:19:26;5.55;;;2.47;;
52962;SDS011;38827;53.024;6.596;2023-04-24T11:22:03;6.13;;;2.30;;
52962;SDS011;38827;53.024;6.596;2023-04-24T11:24:39;9.25;;;2.13;;
52962;SDS011;38827;53.024;6.596;2023-04-24T11:27:15;6.93;;;2.20;;
52962;SDS011;38827;53.024;6.596;2023-04-24T11:34:55;9.18;;;2.15;;
52962;SDS011;38827;53.024;6.596;2023-04-24T11:37:26;8.32;;;2.10;;
52962;SDS011;38827;53.024;6.596;2023-04-24T11:39:55;6.32;;;2.00;;
52962;SDS011;38827;53.024;6.596;2023-04-24T11:42:22;7.20;;;2.22;;
52962;SDS011;38827;53.024;6.596;2023-04-24T11:44:49;7.33;;;2.47;;
52962;SDS011;38827;53.024;6.596;2023-04-24T11:47:16;8.88;;;2.13;;
52962;SDS011;38827;53.024;6.596;2023-04-24T11:49:42;12.18;;;2.67;;
52962;SDS011;38827;53.024;6.596;2023-04-24T11:52:08;9.10;;;2.50;;
52962;SDS011;38827;53.024;6.596;2023-04-24T11:57:03;4.60;;;1.87;;
52962;SDS011;38827;53.024;6.596;2023-04-24T11:59:35;7.97;;;1.80;;
52962;SDS011;38827;53.024;6.596;2023-04-24T12:02:01;4.72;;;1.95;;
52962;SDS011;38827;53.024;6.596;2023-04-24T12:04:37;5.97;;;1.95;;
52962;SDS011;38827;53.024;6.596;2023-04-24T12:07:04;5.32;;;1.90;;
52962;SDS011;38827;53.024;6.596;2023-04-24T12:09:48;8.95;;;1.95;;
52962;SDS011;38827;53.024;6.596;2023-04-24T12:12:21;6.97;;;1.52;;
52962;SDS011;38827;53.024;6.596;2023-04-24T12:14:54;7.90;;;2.20;;
52962;SDS011;38827;53.024;6.596;2023-04-24T12:17:28;5.72;;;1.50;;
52962;SDS011;38827;53.024;6.596;2023-04-24T12:20:05;5.50;;;2.08;;
52962;SDS011;38827;53.024;6.596;2023-04-24T12:27:45;4.82;;;1.80;;
52962;SDS011;38827;53.024;6.596;2023-04-24T12:30:16;5.53;;;1.67;;
52962;SDS011;38827;53.024;6.596;2023-04-24T12:32:42;7.07;;;1.73;;
52962;SDS011;38827;53.024;6.596;2023-04-24T12:35:21;5.18;;;1.92;;
52962;SDS011;38827;53.024;6.596;2023-04-24T12:37:49;7.97;;;2.17;;
52962;SDS011;38827;53.024;6.596;2023-04-24T12:40:16;6.35;;;2.00;;
52962;SDS011;38827;53.024;6.596;2023-04-24T12:42:44;11.30;;;1.80;;
52962;SDS011;38827;53.024;6.596;2023-04-24T12:45:11;6.65;;;1.60;;
52962;SDS011;38827;53.024;6.596;2023-04-24T12:47:38;6.10;;;1.67;;
52962;SDS011;38827;53.024;6.596;2023-04-24T12:52:31;6.80;;;1.85;;
52962;SDS011;38827;53.024;6.596;2023-04-24T12:54:58;6.55;;;1.92;;
52962;SDS011;38827;53.024;6.596;2023-04-24T12:57:25;6.38;;;2.08;;
52962;SDS011;38827;53.024;6.596;2023-04-24T12:59:53;4.80;;;1.60;;
52962;SDS011;38827;53.024;6.596;2023-04-24T13:02:21;4.40;;;1.65;;
52962;SDS011;38827;53.024;6.596;2023-04-24T13:04:47;3.73;;;1.73;;
52962;SDS011;38827;53.024;6.596;2023-04-24T13:07:13;3.65;;;1.52;;
52962;SDS011;38827;53.024;6.596;2023-04-24T13:09:40;7.20;;;2.15;;
52962;SDS011;38827;53.024;6.596;2023-04-24T13:12:07;7.15;;;2.40;;
52962;SDS011;38827;53.024;6.596;2023-04-24T13:14:33;3.63;;;1.27;;
52962;SDS011;38827;53.024;6.596;2023-04-24T13:16:59;4.77;;;1.20;;
52962;SDS011;38827;53.024;6.596;2023-04-24T13:19:25;5.78;;;1.23;;
52962;SDS011;38827;53.024;6.596;2023-04-24T13:21:52;4.70;;;1.33;;
52962;SDS011;38827;53.024;6.596;2023-04-24T13:26:45;5.27;;;1.40;;
52962;SDS011;38827;53.024;6.596;2023-04-24T13:29:10;5.40;;;1.30;;
52962;SDS011;38827;53.024;6.596;2023-04-24T13:31:36;5.05;;;1.27;;
52962;SDS011;38827;53.024;6.596;2023-04-24T13:34:02;4.60;;;1.00;;
52962;SDS011;38827;53.024;6.596;2023-04-24T13:36:28;4.82;;;1.00;;
52962;SDS011;38827;53.024;6.596;2023-04-24T13:38:55;7.50;;;1.00;;
52962;SDS011;38827;53.024;6.596;2023-04-24T13:41:21;5.05;;;1.27;;
52962;SDS011;38827;53.024;6.596;2023-04-24T13:43:47;4.93;;;1.10;;
52962;SDS011;38827;53.024;6.596;2023-04-24T13:46:12;2.67;;;0.95;;
52962;SDS011;38827;53.024;6.596;2023-04-24T13:48:38;4.15;;;0.73;;
52962;SDS011;38827;53.024;6.596;2023-04-24T13:51:03;2.05;;;0.90;;
52962;SDS011;38827;53.024;6.596;2023-04-24T13:53:29;1.92;;;0.55;;
52962;SDS011;38827;53.024;6.596;2023-04-24T13:55:55;1.08;;;0.50;;
52962;SDS011;38827;53.024;6.596;2023-04-24T13:58:21;5.53;;;0.77;;
52962;SDS011;38827;53.024;6.596;2023-04-24T14:00:46;3.40;;;0.70;;
52962;SDS011;38827;53.024;6.596;2023-04-24T14:03:12;1.85;;;0.70;;
52962;SDS011;38827;53.024;6.596;2023-04-24T14:05:37;5.03;;;0.80;;
52962;SDS011;38827;53.024;6.596;2023-04-24T14:08:03;2.38;;;0.80;;
52962;SDS011;38827;53.024;6.596;2023-04-24T14:10:29;3.70;;;0.80;;
52962;SDS011;38827;53.024;6.596;2023-04-24T14:12:55;3.60;;;0.85;;
52962;SDS011;38827;53.024;6.596;2023-04-24T14:15:21;2.72;;;0.80;;
52962;SDS011;38827;53.024;6.596;2023-04-24T14:17:47;4.90;;;1.00;;
52962;SDS011;38827;53.024;6.596;2023-04-24T14:20:14;4.38;;;0.85;;
52962;SDS011;38827;53.024;6.596;2023-04-24T14:22:40;5.57;;;1.40;;
52962;SDS011;38827;53.024;6.596;2023-04-24T14:25:06;6.97;;;1.40;;
52962;SDS011;38827;53.024;6.596;2023-04-24T14:27:32;9.23;;;1.42;;
52962;SDS011;38827;53.024;6.596;2023-04-24T14:32:25;6.95;;;1.60;;
52962;SDS011;38827;53.024;6.596;2023-04-24T14:34:51;7.07;;;1.70;;
52962;SDS011;38827;53.024;6.596;2023-04-24T14:37:17;6.93;;;2.20;;
52962;SDS011;38827;53.024;6.596;2023-04-24T14:39:45;6.63;;;1.58;;
52962;SDS011;38827;53.024;6.596;2023-04-24T14:42:22;13.20;;;3.20;;
52962;SDS011;38827;53.024;6.596;2023-04-24T14:45:02;10.15;;;1.90;;
52962;SDS011;38827;53.024;6.596;2023-04-24T14:48:16;8.68;;;2.10;;
52962;SDS011;38827;53.024;6.596;2023-04-24T14:50:52;10.70;;;2.35;;
52962;SDS011;38827;53.024;6.596;2023-04-24T14:53:23;8.60;;;2.30;;
52962;SDS011;38827;53.024;6.596;2023-04-24T14:55:53;8.52;;;2.08;;
52962;SDS011;38827;53.024;6.596;2023-04-24T14:58:31;8.32;;;2.40;;
52962;SDS011;38827;53.024;6.596;2023-04-24T15:00:58;10.60;;;2.45;;
52962;SDS011;38827;53.024;6.596;2023-04-24T15:03:26;9.65;;;2.50;;
52962;SDS011;38827;53.024;6.596;2023-04-24T15:06:10;13.88;;;2.95;;
52962;SDS011;38827;53.024;6.596;2023-04-24T15:09:06;11.85;;;2.65;;
52962;SDS011;38827;53.024;6.596;2023-04-24T15:14:54;12.02;;;2.75;;
52962;SDS011;38827;53.024;6.596;2023-04-24T15:18:16;9.68;;;2.28;;
52962;SDS011;38827;53.024;6.596;2023-04-24T15:20:53;9.48;;;2.80;;
52962;SDS011;38827;53.024;6.596;2023-04-24T15:27:26;11.23;;;2.50;;
52962;SDS011;38827;53.024;6.596;2023-04-24T15:30:54;9.98;;;2.55;;
52962;SDS011;38827;53.024;6.596;2023-04-24T15:34:41;11.73;;;2.40;;
52962;SDS011;38827;53.024;6.596;2023-04-24T15:37:43;12.77;;;3.10;;
52962;SDS011;38827;53.024;6.596;2023-04-24T15:40:22;17.13;;;3.78;;
52962;SDS011;38827;53.024;6.596;2023-04-24T15:43:13;9.35;;;2.42;;
52962;SDS011;38827;53.024;6.596;2023-04-24T15:46:18;15.68;;;2.78;;
52962;SDS011;38827;53.024;6.596;2023-04-24T15:48:44;11.80;;;2.78;;
52962;SDS011;38827;53.024;6.596;2023-04-24T15:51:10;15.48;;;2.78;;
52962;SDS011;38827;53.024;6.596;2023-04-24T15:53:39;12.93;;;3.10;;
52962;SDS011;38827;53.024;6.596;2023-04-24T15:56:04;7.20;;;2.75;;
52962;SDS011;38827;53.024;6.596;2023-04-24T15:58:30;8.93;;;3.22;;